createdAt,value
2023-03-06T00:02:33.920Z,73.64
2023-03-06T00:06:35.508Z,73.71
2023-03-06T00:10:37.960Z,73.73
2023-03-06T00:14:39.506Z,73.50
2023-03-06T00:18:41.757Z,72.98
2023-03-06T00:22:43.922Z,73.51
2023-03-06T00:26:45.682Z,73.23
2023-03-06T00:30:47.574Z,74.12
2023-03-06T00:34:50.532Z,73.47
2023-03-06T00:38:52.141Z,73.73
2023-03-06T00:42:53.702Z,73.95
2023-03-06T00:46:55.269Z,74.19
2023-03-06T00:50:56.813Z,73.85
2023-03-06T00:54:58.365Z,73.92
2023-03-06T00:58:59.909Z,73.95
2023-03-06T01:03:01.527Z,73.92
2023-03-06T01:07:03.238Z,73.52
2023-03-06T01:11:05.922Z,73.97
2023-03-06T01:15:08.147Z,73.76
2023-03-06T01:19:09.730Z,73.82
2023-03-06T01:23:11.269Z,74.42
2023-03-06T01:27:12.806Z,74.15
2023-03-06T01:31:14.654Z,74.16
2023-03-06T01:35:16.392Z,74.32
2023-03-06T01:39:18.003Z,74.36
2023-03-06T01:43:27.148Z,74.65
2023-03-06T01:47:29.290Z,74.45
2023-03-06T01:51:36.388Z,74.32
2023-03-06T01:55:38.972Z,74.53
2023-03-06T01:59:42.754Z,74.28
2023-03-06T02:03:47.357Z,74.50
2023-03-06T02:07:50.485Z,74.67
2023-03-06T02:11:52.161Z,74.87
2023-03-06T02:15:53.790Z,74.70
2023-03-06T02:20:13.772Z,75.21
2023-03-06T02:24:38.877Z,75.36
2023-03-06T02:28:40.865Z,75.05
2023-03-06T02:32:42.434Z,75.18
2023-03-06T02:36:53.864Z,75.49
2023-03-06T02:40:58.112Z,75.96
2023-03-06T02:45:05.684Z,76.05
2023-03-06T02:49:08.041Z,76.60
2023-03-06T02:53:11.285Z,77.13
2023-03-06T02:57:12.884Z,77.64
2023-03-06T03:01:14.991Z,77.89
2023-03-06T03:05:17.858Z,78.68
2023-03-06T03:09:24.608Z,79.06
2023-03-06T03:13:26.542Z,80.47
2023-03-06T03:17:28.192Z,80.25
2023-03-06T03:21:29.768Z,80.92
2023-03-06T03:25:31.543Z,81.34
2023-03-06T03:29:33.350Z,80.84
2023-03-06T03:33:35.164Z,80.88
2023-03-06T03:37:37.463Z,80.95
2023-03-06T03:41:39.711Z,81.20
2023-03-06T03:45:43.392Z,80.97
2023-03-06T03:49:45.333Z,80.93
2023-03-06T03:53:47.654Z,81.13
2023-03-06T03:57:53.432Z,81.30
2023-03-06T04:01:56.149Z,81.67
2023-03-06T04:05:59.351Z,81.93
2023-03-06T04:10:04.098Z,82.15
2023-03-06T04:14:08.310Z,82.22
2023-03-06T04:18:10.180Z,82.41
2023-03-06T04:22:11.960Z,82.74
2023-03-06T04:26:14.534Z,83.26
2023-03-06T04:30:16.504Z,83.24
2023-03-06T04:34:18.380Z,83.71
2023-03-06T04:38:21.316Z,83.65
2023-03-06T04:42:23.483Z,83.79
2023-03-06T04:46:31.294Z,82.15
2023-03-06T04:50:33.203Z,82.47
2023-03-06T04:54:35.490Z,83.32
2023-03-06T04:58:37.597Z,84.36
2023-03-06T05:02:41.604Z,86.03
2023-03-06T05:06:43.360Z,87.32
2023-03-06T05:10:45.581Z,89.12
2023-03-06T05:14:48.112Z,91.42
2023-03-06T05:18:50.751Z,90.78
2023-03-06T05:22:52.428Z,91.63
2023-03-06T05:26:54.124Z,93.19
2023-03-06T05:30:56.215Z,94.18
2023-03-06T05:34:57.803Z,93.57
2023-03-06T05:38:59.463Z,93.25
2023-03-06T05:43:01.023Z,93.22
2023-03-06T05:47:02.878Z,92.97
2023-03-06T05:51:05.690Z,93.08
2023-03-06T05:55:11.491Z,93.30
2023-03-06T05:59:13.179Z,93.13
2023-03-06T06:03:14.814Z,93.31
2023-03-06T06:07:17.106Z,93.69
2023-03-06T06:11:20.866Z,93.22
2023-03-06T06:15:22.860Z,94.05
2023-03-06T06:19:24.543Z,93.32
2023-03-06T06:23:26.151Z,93.27
2023-03-06T06:27:27.691Z,93.12
2023-03-06T06:31:29.701Z,92.73
2023-03-06T06:35:38.509Z,92.33
2023-03-06T06:39:40.804Z,92.71
2023-03-06T06:43:42.491Z,92.01
2023-03-06T06:47:44.629Z,91.77
2023-03-06T06:51:47.220Z,91.81
2023-03-06T06:55:49.473Z,91.94
2023-03-06T06:59:53.698Z,91.98
2023-03-06T07:03:56.559Z,91.84
2023-03-06T07:07:58.468Z,91.73
2023-03-06T07:12:00.108Z,91.60
2023-03-06T07:16:05.457Z,91.51
2023-03-06T07:20:10.710Z,91.42
2023-03-06T07:24:12.905Z,91.43
2023-03-06T07:28:18.684Z,91.28
2023-03-06T07:32:25.530Z,91.16
2023-03-06T07:36:29.062Z,89.95
2023-03-06T07:40:34.655Z,88.49
2023-03-06T07:44:41.142Z,87.75
2023-03-06T07:48:45.480Z,87.04
2023-03-06T07:52:50.611Z,86.63
2023-03-06T07:56:56.414Z,87.08
2023-03-06T08:01:00.234Z,87.16
2023-03-06T08:05:04.243Z,87.73
2023-03-06T08:09:06.408Z,88.26
2023-03-06T08:13:08.086Z,88.18
2023-03-06T08:17:09.681Z,88.06
2023-03-06T08:21:16.677Z,88.12
2023-03-06T08:25:21.403Z,87.95
2023-03-06T08:29:22.982Z,88.20
2023-03-06T08:33:25.200Z,88.25
2023-03-06T08:37:28.423Z,88.26
2023-03-06T08:41:32.490Z,87.31
2023-03-06T08:45:36.002Z,86.78
2023-03-06T08:49:40.369Z,87.09
2023-03-06T08:53:44.532Z,86.04
2023-03-06T08:57:47.394Z,85.81
2023-03-06T09:01:49.022Z,85.70
2023-03-06T09:05:50.999Z,85.42
2023-03-06T09:09:58.387Z,83.62
2023-03-06T09:14:03.340Z,81.86
2023-03-06T09:18:04.896Z,81.53
2023-03-06T09:22:08.555Z,80.88
2023-03-06T09:26:14.552Z,79.54
2023-03-06T09:30:19.349Z,78.64
2023-03-06T09:34:21.349Z,78.02
2023-03-06T09:38:26.193Z,76.40
2023-03-06T09:42:30.327Z,74.15
2023-03-06T09:46:52.671Z,73.94
2023-03-06T09:51:08.052Z,74.17
2023-03-06T09:55:15.857Z,72.91
2023-03-06T09:59:24.493Z,71.60
2023-03-06T10:03:38.058Z,70.68
2023-03-06T10:08:07.798Z,70.59
2023-03-06T10:12:35.293Z,68.19
2023-03-06T10:16:37.460Z,68.00
2023-03-06T10:20:54.484Z,66.89
2023-03-06T10:25:19.820Z,68.34
2023-03-06T10:29:56.324Z,65.63
2023-03-06T10:34:15.404Z,63.90
2023-03-06T10:38:32.715Z,66.36
2023-03-06T10:42:34.672Z,64.68
2023-03-06T10:46:44.379Z,65.01
2023-03-06T10:50:46.272Z,65.37
2023-03-06T10:54:50.678Z,64.53
2023-03-06T10:59:19.342Z,64.85
2023-03-06T11:03:24.339Z,64.57
2023-03-06T11:07:29.351Z,65.95
2023-03-06T11:11:37.606Z,64.98
2023-03-06T11:15:40.320Z,63.95
2023-03-06T11:19:43.649Z,62.01
2023-03-06T11:23:47.323Z,59.31
2023-03-06T11:28:27.873Z,56.49
2023-03-06T11:32:36.835Z,55.26
2023-03-06T11:36:56.505Z,54.40
2023-03-06T11:41:01.995Z,53.54
2023-03-06T11:45:34.074Z,53.27
2023-03-06T11:49:44.775Z,51.53
2023-03-06T11:53:48.852Z,51.65
2023-03-06T11:57:55.059Z,51.07
2023-03-06T12:02:02.974Z,52.52
2023-03-06T12:06:29.413Z,51.36
2023-03-06T12:10:41.538Z,51.34
2023-03-06T12:15:34.553Z,52.31
2023-03-06T12:19:39.125Z,50.89
2023-03-06T12:24:02.400Z,49.83
2023-03-06T12:28:29.100Z,49.97
2023-03-06T12:32:55.597Z,50.28
2023-03-06T12:37:42.974Z,48.35
2023-03-06T12:42:23.215Z,48.84
2023-03-06T12:46:28.105Z,49.28
2023-03-06T12:50:33.282Z,48.17
2023-03-06T12:54:40.619Z,46.95
2023-03-06T12:58:51.444Z,47.93
2023-03-06T13:03:11.566Z,50.16
2023-03-06T13:07:27.853Z,51.42
2023-03-06T13:12:03.440Z,50.86
2023-03-06T13:16:32.942Z,49.91
2023-03-06T13:20:46.292Z,49.83
2023-03-06T13:24:49.471Z,50.60
2023-03-06T13:28:54.288Z,49.04
2023-03-06T13:32:56.270Z,49.70
2023-03-06T13:37:16.780Z,50.09
2023-03-06T13:41:21.279Z,50.79
2023-03-06T13:45:29.285Z,50.70
2023-03-06T13:49:31.960Z,51.27
2023-03-06T13:53:46.809Z,51.68
2023-03-06T13:58:14.374Z,52.45
2023-03-06T14:02:39.884Z,52.86
2023-03-06T14:06:51.304Z,55.60
2023-03-06T14:11:07.293Z,60.66
2023-03-06T14:15:38.342Z,60.82
2023-03-06T14:19:42.569Z,61.04
2023-03-06T14:23:46.433Z,62.22
2023-03-06T14:27:54.945Z,64.23
2023-03-06T14:32:00.918Z,64.41
2023-03-06T14:36:09.850Z,65.71
2023-03-06T14:40:13.893Z,65.25
2023-03-06T14:44:26.566Z,64.45
2023-03-06T14:48:42.967Z,63.72
2023-03-06T14:52:46.206Z,64.37
2023-03-06T14:56:54.440Z,65.75
2023-03-06T15:01:01.336Z,66.85
2023-03-06T15:05:11.686Z,66.76
2023-03-06T15:09:27.252Z,67.53
2023-03-06T15:13:31.644Z,67.13
2023-03-06T15:17:43.231Z,68.32
2023-03-06T15:21:48.613Z,68.48
2023-03-06T15:26:01.034Z,68.27
2023-03-06T15:30:27.724Z,67.23
2023-03-06T15:34:30.250Z,67.21
2023-03-06T15:38:41.984Z,68.41
2023-03-06T15:42:43.579Z,68.30
2023-03-06T15:46:45.556Z,68.06
2023-03-06T15:50:47.281Z,68.59
2023-03-06T15:54:50.648Z,69.92
2023-03-06T15:58:54.216Z,70.63
2023-03-06T16:02:57.069Z,73.56
2023-03-06T16:06:58.650Z,74.85
2023-03-06T16:11:00.286Z,74.66
2023-03-06T16:15:05.247Z,75.58
2023-03-06T16:19:25.303Z,75.57
2023-03-06T16:23:28.217Z,76.51
2023-03-06T16:27:30.046Z,75.66
2023-03-06T16:31:41.315Z,76.99
2023-03-06T16:35:44.577Z,77.61
2023-03-06T16:39:46.282Z,77.59
2023-03-06T16:43:49.404Z,77.69
2023-03-06T16:47:51.691Z,77.19
2023-03-06T16:51:54.155Z,77.86
2023-03-06T16:55:56.172Z,78.38
2023-03-06T16:59:57.840Z,78.19
2023-03-06T17:03:59.963Z,78.09
2023-03-06T17:08:01.940Z,78.83
2023-03-06T17:12:03.751Z,79.29
2023-03-06T17:16:06.293Z,79.65
2023-03-06T17:20:08.750Z,80.23
2023-03-06T17:24:11.177Z,80.60
2023-03-06T17:28:13.813Z,80.59
2023-03-06T17:32:15.430Z,81.39
2023-03-06T17:36:19.440Z,81.57
2023-03-06T17:40:21.476Z,81.99
2023-03-06T17:44:23.197Z,81.71
2023-03-06T17:48:24.880Z,81.39
2023-03-06T17:52:26.603Z,81.79
2023-03-06T17:56:28.445Z,82.02
2023-03-06T18:00:30.054Z,82.98
2023-03-06T18:04:31.668Z,82.82
2023-03-06T18:08:34.448Z,83.99
2023-03-06T18:12:36.541Z,83.51
2023-03-06T18:16:38.502Z,83.70
2023-03-06T18:20:41.665Z,82.97
2023-03-06T18:24:43.580Z,83.45
2023-03-06T18:28:48.051Z,83.73
2023-03-06T18:32:49.845Z,83.50
2023-03-06T18:36:53.009Z,83.47
2023-03-06T18:40:54.664Z,83.15
2023-03-06T18:44:56.407Z,83.20
2023-03-06T18:48:58.155Z,82.97
2023-03-06T18:53:00.151Z,82.21
2023-03-06T18:57:01.881Z,82.41
2023-03-06T19:01:08.357Z,81.88
2023-03-06T19:05:10.993Z,81.80
2023-03-06T19:09:13.194Z,82.36
2023-03-06T19:13:15.172Z,82.13
2023-03-06T19:17:17.528Z,81.90
2023-03-06T19:21:21.410Z,82.87
2023-03-06T19:25:23.003Z,82.72
2023-03-06T19:29:24.618Z,82.94
2023-03-06T19:33:26.575Z,83.64
2023-03-06T19:37:30.130Z,83.68
2023-03-06T19:41:33.112Z,83.42
2023-03-06T19:45:36.787Z,83.33
2023-03-06T19:49:38.858Z,83.18
2023-03-06T19:53:40.972Z,83.37
2023-03-06T19:57:43.412Z,83.52
2023-03-06T20:01:45.615Z,83.75
2023-03-06T20:05:47.635Z,83.57
2023-03-06T20:09:50.124Z,83.69
2023-03-06T20:13:51.789Z,84.16
2023-03-06T20:17:56.410Z,85.98
2023-03-06T20:21:58.249Z,85.54
2023-03-06T20:26:05.171Z,86.47
2023-03-06T20:30:08.696Z,87.58
2023-03-06T20:34:10.935Z,88.94
2023-03-06T20:38:13.082Z,88.66
2023-03-06T20:42:15.087Z,88.55
2023-03-06T20:46:18.144Z,88.98
2023-03-06T20:50:19.731Z,89.35
2023-03-06T20:54:21.972Z,90.07
2023-03-06T20:58:26.446Z,89.88
2023-03-06T21:02:28.056Z,89.80
2023-03-06T21:06:30.613Z,89.94
2023-03-06T21:10:32.188Z,90.25
2023-03-06T21:14:34.508Z,91.10
2023-03-06T21:18:36.997Z,91.35
2023-03-06T21:22:38.847Z,90.71
2023-03-06T21:26:41.334Z,91.46
2023-03-06T21:30:44.566Z,91.55
2023-03-06T21:35:09.420Z,94.36
2023-03-06T21:39:30.394Z,93.84
2023-03-06T21:43:31.935Z,94.28
2023-03-06T21:47:38.631Z,94.92
2023-03-06T21:51:40.599Z,94.07
2023-03-06T21:55:42.146Z,94.24
2023-03-06T21:59:43.700Z,94.45
2023-03-06T22:03:45.546Z,94.76
2023-03-06T22:07:47.172Z,94.53
2023-03-06T22:11:48.730Z,94.85
2023-03-06T22:15:55.176Z,95.97
2023-03-06T22:24:53.521Z,96.59
2023-03-06T22:28:56.745Z,95.78
2023-03-06T22:32:58.673Z,96.50
2023-03-06T22:37:00.606Z,96.46
2023-03-06T22:41:02.914Z,96.18
2023-03-06T22:45:05.243Z,95.85
2023-03-06T22:49:06.999Z,94.83
2023-03-06T22:53:08.610Z,94.15
2023-03-06T22:57:10.148Z,93.34
2023-03-06T23:01:19.607Z,93.15
2023-03-06T23:05:21.482Z,92.36
2023-03-06T23:09:23.375Z,91.62
2023-03-06T23:13:43.364Z,90.97
2023-03-06T23:18:04.321Z,90.70
2023-03-06T23:22:24.479Z,91.13
2023-03-06T23:26:44.339Z,91.15
2023-03-06T23:30:45.944Z,90.87
2023-03-06T23:34:50.398Z,90.54
2023-03-06T23:38:52.015Z,90.23
2023-03-06T23:42:53.603Z,90.06
2023-03-06T23:46:55.147Z,89.87
2023-03-06T23:50:57.228Z,89.29
2023-03-06T23:54:58.939Z,89.11
2023-03-06T23:59:00.575Z,88.94
